Rio, Louisiana
Current Conditions -  °F | °C
As of 2:53 PM on Sunday 21 Dec 2014 (Local Time) from KASD Reporting Station
Scattered Clouds Scattered Clouds  
Wind Chill: 59°   Ceiling: Unl
Heat Index: 59°   Visibility: 10mi
Dew Point: 51°   Wind: 8mph
Humidity: 75%   Direction: 190°S
Pressure: 30.01"   Gusts: NA
Location:  30.7419°N, 89.8828°W
Report Text: KASD 212053Z AUTO 19007KT 10SM SCT110 15/11 A3001 RMK AO2 SLP161 T01500106 56027
Loading
Personal Weather Stations






























Interactive Weather Map New forecast layout! Learn more

10-Day Weather Forecast

Advertisements
Track Severe Weather on mobile